Time,TemperatureF,DewpointF,PressureIn,WindDirection,WindDirectionDegrees,WindSpeedMPH,WindSpeedGustMPH,Humidity,HourlyPrecipIn,Conditions,Clouds,dailyrainin,SolarRadiationWatts/m^2,SoftwareType,DateUTC
2013-07-19 00:02:00,82.2,69.7,29.84,WSW,237,2.7,8.1,66,0.00,BKN,,0.00,0.0,WeatherDisplay:10.37,2013-07-19 05:02:00,
2013-07-19 00:07:00,82.2,70.1,29.84,SSW,212,0.9,8.8,67,0.00,BKN,,0.00,0.0,WeatherDisplay:10.37,2013-07-19 05:07:00,
2013-07-19 00:12:00,82.0,69.5,29.84,SSW,193,2.9,4.6,66,0.00,BKN,,0.00,0.0,WeatherDisplay:10.37,2013-07-19 05:12:00,
2013-07-19 00:17:00,82.0,69.5,29.83,SSW,208,0.0,0.0,66,0.00,BKN,,0.00,0.0,WeatherDisplay:10.37,2013-07-19 05:17:00,
2013-07-19 00:22:00,82.0,69.5,29.83,SSW,206,0.3,9.2,66,0.00,BKN,,0.00,0.0,WeatherDisplay:10.37,2013-07-19 05:22:00,
2013-07-19 00:27:00,82.0,69.5,29.83,South,185,4.2,9.2,66,0.00,BKN,,0.00,0.0,WeatherDisplay:10.37,2013-07-19 05:27:00,
2013-07-19 00:32:00,82.0,69.5,29.83,SSW,198,1.4,6.9,66,0.00,BKN,,0.00,0.0,WeatherDisplay:10.37,2013-07-19 05:32:00,
2013-07-19 00:37:00,82.0,69.5,29.83,South,189,1.2,6.9,66,0.00,BKN,,0.00,0.0,WeatherDisplay:10.37,2013-07-19 05:37:00,
2013-07-19 00:42:00,82.0,69.5,29.83,South,184,1.9,4.6,66,0.00,BKN,,0.00,0.0,WeatherDisplay:10.37,2013-07-19 05:42:00,
2013-07-19 00:47:00,81.8,69.3,29.82,South,177,0.1,3.5,66,0.00,BKN,,0.00,0.0,WeatherDisplay:10.37,2013-07-19 05:47:00,
2013-07-19 00:52:00,81.8,69.3,29.82,SSW,201,1.9,9.2,66,0.00,BKN,,0.00,0.0,WeatherDisplay:10.37,2013-07-19 05:52:00,
2013-07-19 00:57:00,81.6,69.1,29.82,South,189,3.6,9.2,66,0.00,BKN,,0.00,0.0,WeatherDisplay:10.37,2013-07-19 05:57:00,
2013-07-19 01:02:00,81.6,69.6,29.82,SSE,152,0.8,6.6,67,0.00,BKN,,0.00,0.0,WeatherDisplay:10.37,2013-07-19 06:02:00,
2013-07-19 01:07:00,81.6,69.6,29.82,SSW,194,3.7,9.9,67,0.00,BKN,,0.00,0.0,WeatherDisplay:10.37,2013-07-19 06:07:00,
2013-07-19 01:12:00,81.4,69.4,29.82,SSW,206,0.7,4.6,67,0.00,BKN,,0.00,0.0,WeatherDisplay:10.37,2013-07-19 06:12:00,
2013-07-19 01:17:00,81.2,69.2,29.82,South,173,0.6,4.4,67,0.00,BKN,,0.00,0.0,WeatherDisplay:10.37,2013-07-19 06:17:00,
2013-07-19 01:22:00,81.2,69.2,29.82,South,188,6.1,12.1,67,0.00,BKN,,0.00,0.0,WeatherDisplay:10.37,2013-07-19 06:22:00,
2013-07-19 01:27:00,81.2,69.2,29.82,SW,221,1.7,4.6,67,0.00,BKN,,0.00,0.0,WeatherDisplay:10.37,2013-07-19 06:27:00,
2013-07-19 01:32:00,81.2,69.2,29.82,South,178,0.7,4.4,67,0.00,BKN,,0.00,0.0,WeatherDisplay:10.37,2013-07-19 06:32:00,
2013-07-19 01:37:00,81.1,69.1,29.82,South,171,0.0,1.2,67,0.00,BKN,,0.00,0.0,WeatherDisplay:10.37,2013-07-19 06:37:00,
2013-07-19 01:42:00,81.1,69.5,29.82,South,173,4.4,9.2,68,0.00,BKN,,0.00,0.0,WeatherDisplay:10.37,2013-07-19 06:42:00,
2013-07-19 01:47:00,80.9,69.3,29.81,SW,221,1.1,4.6,68,0.00,BKN,,0.00,0.0,WeatherDisplay:10.37,2013-07-19 06:47:00,
2013-07-19 01:52:00,80.7,69.2,29.81,South,174,0.0,1.2,68,0.00,BKN,,0.00,0.0,WeatherDisplay:10.37,2013-07-19 06:52:00,
2013-07-19 01:57:00,80.7,69.2,29.81,South,174,2.8,5.8,68,0.00,BKN,,0.00,0.0,WeatherDisplay:10.37,2013-07-19 06:57:00,
2013-07-19 02:02:00,80.5,69.0,29.81,South,180,0.0,1.2,68,0.00,BKN,,0.00,0.0,WeatherDisplay:10.37,2013-07-19 07:02:00,
2013-07-19 02:07:00,80.5,69.0,29.81,South,188,0.0,0.0,68,0.00,BKN,,0.00,0.0,WeatherDisplay:10.37,2013-07-19 07:07:00,
2013-07-19 02:12:00,80.3,68.8,29.81,South,176,2.6,5.8,68,0.00,BKN,,0.00,0.0,WeatherDisplay:10.37,2013-07-19 07:12:00,
2013-07-19 02:17:00,80.3,69.2,29.81,SSW,201,0.0,1.1,69,0.00,BKN,,0.00,0.0,WeatherDisplay:10.37,2013-07-19 07:17:00,
2013-07-19 02:22:00,80.3,69.2,29.81,SSE,166,1.4,6.6,69,0.00,BKN,,0.00,0.0,WeatherDisplay:10.37,2013-07-19 07:22:00,
2013-07-19 02:27:00,80.1,69.0,29.81,SSW,202,2.7,8.1,69,0.00,BKN,,0.00,0.0,WeatherDisplay:10.37,2013-07-19 07:27:00,
2013-07-19 02:32:00,80.1,69.0,29.79,South,190,0.1,3.5,69,0.00,BKN,,0.00,0.0,WeatherDisplay:10.37,2013-07-19 07:32:00,
2013-07-19 02:37:00,79.9,69.2,29.79,South,184,1.8,8.1,70,0.00,BKN,,0.00,0.0,WeatherDisplay:10.37,2013-07-19 07:37:00,
2013-07-19 02:42:00,79.6,69.0,29.79,South,190,0.2,1.2,70,0.00,BKN,,0.00,0.0,WeatherDisplay:10.37,2013-07-19 07:42:00,
2013-07-19 02:47:00,79.4,69.2,29.78,South,190,0.1,1.2,71,0.00,BKN,,0.00,0.0,WeatherDisplay:10.37,2013-07-19 07:47:00,
2013-07-19 02:52:00,79.2,69.0,29.78,South,191,0.1,4.6,71,0.00,BKN,,0.00,0.0,WeatherDisplay:10.37,2013-07-19 07:52:00,
2013-07-19 02:57:00,79.0,69.2,29.78,South,171,0.0,1.1,72,0.00,BKN,,0.00,0.0,WeatherDisplay:10.37,2013-07-19 07:57:00,
2013-07-19 03:02:00,78.8,69.0,29.77,South,186,0.1,1.2,72,0.00,BKN,,0.00,0.0,WeatherDisplay:10.37,2013-07-19 08:02:00,
2013-07-19 03:07:00,79.0,68.8,29.77,SSW,194,0.5,4.6,71,0.00,BKN,,0.00,0.0,WeatherDisplay:10.37,2013-07-19 08:07:00,
2013-07-19 03:12:00,79.2,69.0,29.77,South,183,0.1,3.5,71,0.00,BKN,,0.00,0.0,WeatherDisplay:10.37,2013-07-19 08:12:00,
2013-07-19 03:17:00,79.2,69.0,29.77,SSW,194,0.0,4.6,71,0.00,BKN,,0.00,0.0,WeatherDisplay:10.37,2013-07-19 08:17:00,
2013-07-19 03:22:00,79.2,69.0,29.77,South,175,0.0,2.3,71,0.00,BKN,,0.00,0.0,WeatherDisplay:10.37,2013-07-19 08:22:00,
2013-07-19 03:27:00,79.2,69.0,29.77,SSW,200,1.6,5.8,71,0.00,BKN,,0.00,0.0,WeatherDisplay:10.37,2013-07-19 08:27:00,
2013-07-19 03:32:00,79.0,68.4,29.76,SSW,206,1.0,5.8,70,0.00,BKN,,0.00,0.0,WeatherDisplay:10.37,2013-07-19 08:32:00,
2013-07-19 03:37:00,79.0,68.8,29.76,SSW,194,0.0,0.0,71,0.00,BKN,,0.00,0.0,WeatherDisplay:10.37,2013-07-19 08:37:00,
2013-07-19 03:42:00,78.8,68.6,29.76,SSW,205,0.1,1.1,71,0.00,BKN,,0.00,0.0,WeatherDisplay:10.37,2013-07-19 08:42:00,
2013-07-19 03:47:00,78.6,68.8,29.76,SSW,194,0.0,0.0,72,0.00,BKN,,0.00,0.0,WeatherDisplay:10.37,2013-07-19 08:47:00,
2013-07-19 03:52:00,78.6,68.8,29.76,South,184,0.0,3.5,72,0.00,BKN,,0.00,0.0,WeatherDisplay:10.37,2013-07-19 08:52:00,
2013-07-19 03:57:00,78.6,68.8,29.76,South,185,0.0,0.0,72,0.00,BKN,,0.00,0.0,WeatherDisplay:10.37,2013-07-19 08:57:00,
2013-07-19 04:02:00,78.5,68.7,29.75,South,187,0.8,5.8,72,0.00,BKN,,0.00,0.0,WeatherDisplay:10.37,2013-07-19 09:02:00,
2013-07-19 04:07:00,78.6,68.8,29.75,South,183,0.0,0.0,72,0.00,BKN,,0.00,0.0,WeatherDisplay:10.37,2013-07-19 09:07:00,
2013-07-19 04:12:00,78.6,68.8,29.75,SSW,194,1.1,4.6,72,0.00,BKN,,0.00,0.0,WeatherDisplay:10.37,2013-07-19 09:12:00,
2013-07-19 04:17:00,78.6,68.8,29.75,South,174,3.7,6.6,72,0.00,BKN,,0.00,0.0,WeatherDisplay:10.37,2013-07-19 09:17:00,
2013-07-19 04:22:00,78.6,68.4,29.75,South,187,2.6,5.8,71,0.00,BKN,,0.00,0.0,WeatherDisplay:10.37,2013-07-19 09:22:00,
2013-07-19 04:27:00,78.6,68.4,29.75,SSW,193,0.0,0.0,71,0.00,BKN,,0.00,0.0,WeatherDisplay:10.37,2013-07-19 09:27:00,
2013-07-19 04:32:00,78.6,68.8,29.75,SSW,194,0.1,1.1,72,0.00,BKN,,0.00,0.0,WeatherDisplay:10.37,2013-07-19 09:32:00,
2013-07-19 04:37:00,78.6,68.4,29.75,SSW,205,0.1,1.2,71,0.00,BKN,,0.00,0.0,WeatherDisplay:10.37,2013-07-19 09:37:00,
2013-07-19 04:42:00,78.6,68.4,29.75,South,175,0.1,5.8,71,0.00,BKN,,0.00,0.0,WeatherDisplay:10.37,2013-07-19 09:42:00,
2013-07-19 04:47:00,78.6,68.4,29.75,SW,214,1.9,7.7,71,0.00,BKN,,0.00,0.0,WeatherDisplay:10.37,2013-07-19 09:47:00,
2013-07-19 04:52:00,78.6,68.4,29.75,South,179,3.3,8.1,71,0.00,BKN,,0.00,0.0,WeatherDisplay:10.37,2013-07-19 09:52:00,
2013-07-19 04:57:00,78.6,68.4,29.75,South,183,1.7,4.6,71,0.00,BKN,,0.00,0.0,WeatherDisplay:10.37,2013-07-19 09:57:00,
2013-07-19 05:02:00,78.6,68.0,29.74,SW,223,4.5,9.9,70,0.00,BKN,,0.00,0.0,WeatherDisplay:10.37,2013-07-19 10:02:00,
2013-07-19 05:07:00,78.6,68.0,29.74,SSE,154,1.6,9.2,70,0.00,BKN,,0.00,0.0,WeatherDisplay:10.37,2013-07-19 10:07:00,
2013-07-19 05:12:00,78.6,68.4,29.74,SSE,162,1.6,7.7,71,0.00,BKN,,0.00,0.0,WeatherDisplay:10.37,2013-07-19 10:12:00,
2013-07-19 05:17:00,78.6,68.4,29.74,SSE,166,4.7,8.8,71,0.00,BKN,,0.00,0.0,WeatherDisplay:10.37,2013-07-19 10:17:00,
2013-07-19 05:22:00,78.6,68.0,29.74,South,182,2.9,8.8,70,0.00,BKN,,0.00,0.0,WeatherDisplay:10.37,2013-07-19 10:22:00,
2013-07-19 05:27:00,78.6,68.4,29.74,South,176,2.7,5.5,71,0.00,BKN,,0.00,0.0,WeatherDisplay:10.37,2013-07-19 10:27:00,
2013-07-19 05:32:00,78.6,68.4,29.74,SSW,193,4.6,6.9,71,0.00,BKN,,0.00,0.0,WeatherDisplay:10.37,2013-07-19 10:32:00,
2013-07-19 05:37:00,78.5,68.3,29.74,South,175,4.1,9.2,71,0.00,BKN,,0.00,0.0,WeatherDisplay:10.37,2013-07-19 10:37:00,
2013-07-19 05:42:00,78.5,68.3,29.74,South,190,1.8,6.9,71,0.00,BKN,,0.00,0.0,WeatherDisplay:10.37,2013-07-19 10:42:00,
2013-07-19 05:47:00,78.5,68.3,29.74,SW,227,1.8,5.5,71,0.00,BKN,,0.00,5.0,WeatherDisplay:10.37,2013-07-19 10:47:00,
2013-07-19 06:00:00,78.5,68.3,29.74,SW,230,0.2,5.5,71,0.00,CLR,,0.00,14.0,WeatherDisplay:10.37,2013-07-19 11:00:00,
2013-07-19 06:05:00,78.5,68.7,29.74,SSW,196,1.6,5.8,72,0.00,CLR,,0.00,21.0,WeatherDisplay:10.37,2013-07-19 11:05:00,
2013-07-19 06:10:00,78.5,68.7,29.74,SW,217,4.4,9.2,72,0.00,CLR,,0.00,33.0,WeatherDisplay:10.37,2013-07-19 11:10:00,
2013-07-19 06:15:00,79.2,68.1,29.74,SW,231,4.9,8.1,69,0.00,CLR,,0.00,69.0,WeatherDisplay:10.37,2013-07-19 11:15:00,
2013-07-19 06:20:00,79.6,68.1,29.74,South,187,5.1,10.4,68,0.00,CLR,,0.00,77.0,WeatherDisplay:10.37,2013-07-19 11:20:00,
2013-07-19 06:25:00,79.8,68.3,29.74,SSW,194,5.2,10.4,68,0.00,CLR,,0.00,77.0,WeatherDisplay:10.37,2013-07-19 11:25:00,
2013-07-19 06:30:00,79.9,68.4,29.75,WNW,283,2.7,8.1,68,0.00,CLR,,0.00,63.0,WeatherDisplay:10.37,2013-07-19 11:30:00,
2013-07-19 06:35:00,80.1,68.2,29.75,WSW,258,3.7,9.2,67,0.00,CLR,,0.00,42.0,WeatherDisplay:10.37,2013-07-19 11:35:00,
2013-07-19 06:40:00,80.1,68.2,29.75,SSW,194,0.1,5.8,67,0.00,CLR,,0.00,35.0,WeatherDisplay:10.37,2013-07-19 11:40:00,
2013-07-19 06:45:00,80.1,68.2,29.76,SW,218,1.0,4.6,67,0.00,CLR,,0.00,42.0,WeatherDisplay:10.37,2013-07-19 11:45:00,
2013-07-19 06:50:00,80.1,68.2,29.76,SW,216,1.8,9.2,67,0.00,CLR,,0.00,62.0,WeatherDisplay:10.37,2013-07-19 11:50:00,
2013-07-19 06:55:00,80.1,68.2,29.76,SSW,211,0.0,1.2,67,0.00,CLR,,0.00,83.0,WeatherDisplay:10.37,2013-07-19 11:55:00,
2013-07-19 07:00:00,80.1,68.2,29.76,SSW,193,1.3,6.9,67,0.00,CLR,,0.00,95.0,WeatherDisplay:10.37,2013-07-19 12:00:00,
2013-07-19 07:05:00,80.1,68.6,29.76,South,186,0.0,0.0,68,0.00,OVC,,0.00,121.0,WeatherDisplay:10.37,2013-07-19 12:05:00,
2013-07-19 07:10:00,80.1,68.6,29.76,South,184,0.1,1.2,68,0.00,OVC,,0.00,269.0,WeatherDisplay:10.37,2013-07-19 12:10:00,
2013-07-19 07:15:00,80.3,68.8,29.77,SSW,213,0.0,1.2,68,0.00,OVC,,0.00,295.0,WeatherDisplay:10.37,2013-07-19 12:15:00,
2013-07-19 07:20:00,80.3,68.8,29.77,SSW,207,1.9,6.6,68,0.00,OVC,,0.00,148.0,WeatherDisplay:10.37,2013-07-19 12:20:00,
2013-07-19 07:25:00,80.3,69.2,29.77,SSE,151,1.5,6.9,69,0.00,OVC,,0.00,209.0,WeatherDisplay:10.37,2013-07-19 12:25:00,
2013-07-19 07:30:00,80.3,68.8,29.76,SSW,213,1.1,9.2,68,0.00,OVC,,0.00,162.0,WeatherDisplay:10.37,2013-07-19 12:30:00,
2013-07-19 07:35:00,80.3,69.2,29.76,SSW,196,3.0,5.8,69,0.00,OVC,,0.00,195.0,WeatherDisplay:10.37,2013-07-19 12:35:00,
2013-07-19 07:40:00,80.3,69.2,29.76,SW,220,0.0,1.1,69,0.00,OVC,,0.00,237.0,WeatherDisplay:10.37,2013-07-19 12:40:00,
2013-07-19 07:45:00,80.3,69.2,29.76,SSW,205,0.1,3.5,69,0.00,OVC,,0.00,151.0,WeatherDisplay:10.37,2013-07-19 12:45:00,
2013-07-19 07:50:00,80.3,69.2,29.76,SW,228,1.7,5.8,69,0.00,OVC,,0.00,128.0,WeatherDisplay:10.37,2013-07-19 12:50:00,
2013-07-19 07:55:00,80.1,69.0,29.76,South,182,0.4,2.2,69,0.00,OVC,,0.00,113.0,WeatherDisplay:10.37,2013-07-19 12:55:00,
2013-07-19 08:00:00,79.9,68.8,29.75,SSW,211,0.0,0.0,69,0.00,OVC,,0.00,105.0,WeatherDisplay:10.37,2013-07-19 13:00:00,
2013-07-19 08:05:00,79.9,69.2,29.75,SSW,205,0.0,0.0,70,0.00,OVC,,0.00,83.0,WeatherDisplay:10.37,2013-07-19 13:05:00,
2013-07-19 08:10:00,79.8,69.6,29.75,South,169,0.0,0.0,71,0.00,OVC,,0.00,72.0,WeatherDisplay:10.37,2013-07-19 13:10:00,
2013-07-19 08:15:00,79.6,69.4,29.76,South,169,0.1,1.2,71,0.00,OVC,,0.00,74.0,WeatherDisplay:10.37,2013-07-19 13:15:00,
2013-07-19 08:20:00,79.4,69.6,29.76,South,169,0.0,0.0,72,0.00,OVC,,0.00,70.0,WeatherDisplay:10.37,2013-07-19 13:20:00,
2013-07-19 08:25:00,79.4,69.6,29.76,South,169,0.0,0.0,72,0.00,OVC,,0.00,76.0,WeatherDisplay:10.37,2013-07-19 13:25:00,
2013-07-19 08:26:00,79.2,69.4,29.76,South,178,1.7,5.5,72,0.00,OVC,,0.00,83.0,WeatherDisplay:10.37,2013-07-19 13:26:00,
2013-07-19 08:31:00,79.0,69.2,29.76,SSW,200,0.7,6.6,72,0.00,OVC,,0.00,118.0,WeatherDisplay:10.37,2013-07-19 13:31:00,
2013-07-19 08:36:00,79.0,69.6,29.76,SW,216,0.0,2.3,73,0.00,BKN,,0.00,160.0,WeatherDisplay:10.37,2013-07-19 13:36:00,
2013-07-19 08:41:00,79.0,69.6,29.76,SSW,202,1.0,5.8,73,0.00,BKN,,0.00,216.0,WeatherDisplay:10.37,2013-07-19 13:41:00,
2013-07-19 08:46:00,79.2,69.8,29.76,SSE,162,0.6,5.5,73,0.00,BKN,,0.00,218.0,WeatherDisplay:10.37,2013-07-19 13:46:00,
2013-07-19 08:51:00,79.2,69.8,29.76,South,187,0.1,1.2,73,0.00,BKN,,0.00,207.0,WeatherDisplay:10.37,2013-07-19 13:51:00,
2013-07-19 08:56:00,79.4,69.6,29.76,South,178,1.6,5.8,72,0.00,BKN,,0.00,178.0,WeatherDisplay:10.37,2013-07-19 13:56:00,
2013-07-19 09:01:00,79.4,70.0,29.76,SSW,198,0.1,3.5,73,0.00,BKN,,0.00,162.0,WeatherDisplay:10.37,2013-07-19 14:01:00,
2013-07-19 09:06:00,79.4,70.0,29.76,SSW,198,0.3,3.5,73,0.00,BKN,,0.00,142.0,WeatherDisplay:10.37,2013-07-19 14:06:00,
2013-07-19 09:11:00,79.2,69.8,29.76,SSW,205,1.5,4.4,73,0.00,BKN,,0.00,258.0,WeatherDisplay:10.37,2013-07-19 14:11:00,
2013-07-19 09:16:00,79.4,69.6,29.76,South,176,0.0,5.8,72,0.00,SCT,,0.00,526.0,WeatherDisplay:10.37,2013-07-19 14:16:00,
2013-07-19 09:21:00,79.8,70.0,29.76,SSW,207,0.0,6.9,72,0.00,SCT,,0.00,366.0,WeatherDisplay:10.37,2013-07-19 14:21:00,
2013-07-19 09:26:00,79.9,69.7,29.76,SSW,197,4.0,9.2,71,0.00,BKN,,0.00,457.0,WeatherDisplay:10.37,2013-07-19 14:26:00,
2013-07-19 09:31:00,80.3,70.0,29.76,SSW,202,1.1,4.6,71,0.00,SCT,,0.00,388.0,WeatherDisplay:10.37,2013-07-19 14:31:00,
2013-07-19 09:36:00,80.7,70.0,29.76,SSW,198,1.5,4.6,70,0.00,SCT,,0.00,619.0,WeatherDisplay:10.37,2013-07-19 14:36:00,
2013-07-19 09:41:00,81.1,69.5,29.76,South,179,2.7,8.8,68,0.00,FEW,,0.00,577.0,WeatherDisplay:10.37,2013-07-19 14:41:00,
2013-07-19 09:46:00,81.2,70.1,29.75,SSW,192,1.5,4.6,69,0.00,SCT,,0.00,499.0,WeatherDisplay:10.37,2013-07-19 14:46:00,
2013-07-19 09:51:00,81.4,69.8,29.75,SSW,200,1.6,6.6,68,0.00,SCT,,0.00,745.0,WeatherDisplay:10.37,2013-07-19 14:51:00,
2013-07-19 09:56:00,81.4,69.8,29.75,SSW,203,0.8,3.5,68,0.00,SCT,,0.00,362.0,WeatherDisplay:10.37,2013-07-19 14:56:00,
2013-07-19 10:01:00,81.6,70.0,29.75,South,183,0.1,1.2,68,0.00,SCT,,0.00,485.0,WeatherDisplay:10.37,2013-07-19 15:01:00,
2013-07-19 10:06:00,81.8,69.8,29.75,South,181,1.4,4.4,67,0.00,SCT,,0.00,714.0,WeatherDisplay:10.37,2013-07-19 15:06:00,
2013-07-19 10:11:00,82.2,69.7,29.75,SW,220,3.4,8.1,66,0.00,CLR,,0.00,745.0,WeatherDisplay:10.37,2013-07-19 15:11:00,
2013-07-19 10:16:00,82.6,70.1,29.75,SW,223,5.6,9.9,66,0.00,FEW,,0.00,622.0,WeatherDisplay:10.37,2013-07-19 15:16:00,
2013-07-19 10:21:00,82.4,70.3,29.75,South,191,3.6,6.6,67,0.00,SCT,,0.00,494.0,WeatherDisplay:10.37,2013-07-19 15:21:00,
2013-07-19 10:26:00,82.0,69.5,29.75,South,178,3.5,6.9,66,0.00,SCT,,0.00,338.0,WeatherDisplay:10.37,2013-07-19 15:26:00,
2013-07-19 10:31:00,82.0,70.8,29.75,SSW,207,2.4,8.1,69,0.00,SCT,,0.00,647.0,WeatherDisplay:10.37,2013-07-19 15:31:00,
2013-07-19 10:36:00,82.2,70.1,29.75,South,173,1.5,6.9,67,0.00,FEW,,0.00,763.0,WeatherDisplay:10.37,2013-07-19 15:36:00,
2013-07-19 10:41:00,83.0,70.5,29.75,SSW,196,3.0,6.9,66,0.00,FEW,,0.00,786.0,WeatherDisplay:10.37,2013-07-19 15:41:00,
2013-07-19 10:46:00,82.8,70.3,29.75,South,187,4.1,9.2,66,0.00,FEW,,0.00,838.0,WeatherDisplay:10.37,2013-07-19 15:46:00,
2013-07-19 10:51:00,83.4,70.8,29.75,SSE,167,0.1,4.6,66,0.00,CLR,,0.00,914.0,WeatherDisplay:10.37,2013-07-19 15:51:00,
2013-07-19 10:56:00,83.4,70.8,29.75,South,189,5.8,11.5,66,0.00,CLR,,0.00,561.0,WeatherDisplay:10.37,2013-07-19 15:56:00,
2013-07-19 11:01:00,82.8,70.3,29.75,SW,227,5.1,9.2,66,0.00,SCT,,0.00,327.0,WeatherDisplay:10.37,2013-07-19 16:01:00,
2013-07-19 11:06:00,82.8,71.2,29.75,SW,227,0.0,1.2,68,0.00,BKN,,0.00,636.0,WeatherDisplay:10.37,2013-07-19 16:06:00,
2013-07-19 11:11:00,83.2,71.5,29.75,SSW,212,4.7,9.2,68,0.00,SCT,,0.00,744.0,WeatherDisplay:10.37,2013-07-19 16:11:00,
2013-07-19 11:16:00,83.4,71.3,29.74,SW,218,0.5,3.5,67,0.00,SCT,,0.00,870.0,WeatherDisplay:10.37,2013-07-19 16:16:00,
2013-07-19 11:21:00,83.8,72.1,29.74,SW,233,1.8,4.4,68,0.00,FEW,,0.00,789.0,WeatherDisplay:10.37,2013-07-19 16:21:00,
2013-07-19 11:26:00,83.8,71.2,29.74,SSW,205,6.1,13.2,66,0.00,SCT,,0.00,823.0,WeatherDisplay:10.37,2013-07-19 16:26:00,
2013-07-19 11:31:00,83.6,71.0,29.74,SSW,203,6.5,10.4,66,0.00,FEW,,0.00,886.0,WeatherDisplay:10.37,2013-07-19 16:31:00,
2013-07-19 11:36:00,84.0,71.4,29.74,South,189,1.5,6.9,66,0.00,FEW,,0.00,979.0,WeatherDisplay:10.37,2013-07-19 16:36:00,
2013-07-19 11:41:00,84.3,71.7,29.74,SW,219,2.9,6.9,66,0.00,FEW,,0.00,791.0,WeatherDisplay:10.37,2013-07-19 16:41:00,
2013-07-19 11:46:00,84.5,71.9,29.75,SSW,201,5.9,8.1,66,0.00,FEW,,0.00,872.0,WeatherDisplay:10.37,2013-07-19 16:46:00,
2013-07-19 11:51:00,84.3,71.7,29.75,WSW,242,3.1,10.4,66,0.00,FEW,,0.00,867.0,WeatherDisplay:10.37,2013-07-19 16:51:00,
2013-07-19 11:56:00,84.3,71.7,29.75,WSW,238,4.7,8.8,66,0.00,FEW,,0.00,867.0,WeatherDisplay:10.37,2013-07-19 16:56:00,
2013-07-19 12:01:00,84.3,72.1,29.75,SW,219,4.9,6.9,67,0.00,FEW,,0.00,877.0,WeatherDisplay:10.37,2013-07-19 17:01:00,
2013-07-19 12:06:00,84.7,72.1,29.75,SSW,207,4.2,6.9,66,0.00,SCT,,0.00,875.0,WeatherDisplay:10.37,2013-07-19 17:06:00,
2013-07-19 12:11:00,85.3,72.2,29.75,South,184,3.0,6.9,65,0.00,SCT,,0.00,877.0,WeatherDisplay:10.37,2013-07-19 17:11:00,
2013-07-19 12:16:00,85.5,71.9,29.74,South,178,0.7,3.5,64,0.00,SCT,,0.00,882.0,WeatherDisplay:10.37,2013-07-19 17:16:00,
2013-07-19 12:21:00,85.9,71.8,29.74,SSW,196,1.6,5.8,63,0.00,SCT,,0.00,881.0,WeatherDisplay:10.37,2013-07-19 17:21:00,
2013-07-19 12:26:00,86.1,71.1,29.74,West,267,0.6,3.5,61,0.00,SCT,,0.00,884.0,WeatherDisplay:10.37,2013-07-19 17:26:00,
2013-07-19 12:31:00,86.5,71.0,29.74,West,259,1.0,3.5,60,0.00,SCT,,0.00,888.0,WeatherDisplay:10.37,2013-07-19 17:31:00,
2013-07-19 12:36:00,86.5,71.0,29.74,SSW,202,2.9,5.8,60,0.00,SCT,,0.00,889.0,WeatherDisplay:10.37,2013-07-19 17:36:00,
2013-07-19 12:41:00,86.5,70.5,29.74,West,261,3.2,8.8,59,0.00,SCT,,0.00,886.0,WeatherDisplay:10.37,2013-07-19 17:41:00,
2013-07-19 12:46:00,87.2,72.6,29.74,SW,227,0.1,1.2,62,0.00,SCT,,0.00,882.0,WeatherDisplay:10.37,2013-07-19 17:46:00,
2013-07-19 12:51:00,87.6,70.5,29.74,WSW,258,5.6,11.5,57,0.00,SCT,,0.00,884.0,WeatherDisplay:10.37,2013-07-19 17:51:00,
2013-07-19 12:56:00,87.4,69.8,29.74,South,173,5.1,12.7,56,0.00,SCT,,0.00,729.0,WeatherDisplay:10.37,2013-07-19 17:56:00,
2013-07-19 13:01:00,87.0,70.4,29.74,NE,49,0.5,5.8,58,0.00,SCT,,0.00,888.0,WeatherDisplay:10.37,2013-07-19 18:01:00,
2013-07-19 13:06:00,87.8,69.1,29.74,SW,231,0.8,4.4,54,0.00,SCT,,0.00,888.0,WeatherDisplay:10.37,2013-07-19 18:06:00,
2013-07-19 13:11:00,88.2,70.0,29.74,SSW,196,5.1,9.2,55,0.00,SCT,,0.00,911.0,WeatherDisplay:10.37,2013-07-19 18:11:00,
2013-07-19 13:16:00,88.6,70.9,29.74,WSW,246,0.0,2.3,56,0.00,SCT,,0.00,891.0,WeatherDisplay:10.37,2013-07-19 18:16:00,
2013-07-19 13:21:00,89.3,68.8,29.74,WSW,248,0.6,11.0,51,0.00,SCT,,0.00,900.0,WeatherDisplay:10.37,2013-07-19 18:21:00,
2013-07-19 13:26:00,89.0,67.4,29.74,SSW,206,0.6,6.9,49,0.00,SCT,,0.00,886.0,WeatherDisplay:10.37,2013-07-19 18:26:00,
2013-07-19 13:31:00,89.3,67.6,29.74,South,188,3.3,7.7,49,0.00,SCT,,0.00,886.0,WeatherDisplay:10.37,2013-07-19 18:31:00,
2013-07-19 13:36:00,88.8,67.2,29.74,WSW,240,4.2,8.1,49,0.00,SCT,,0.00,884.0,WeatherDisplay:10.37,2013-07-19 18:36:00,
2013-07-19 13:41:00,88.8,67.2,29.74,SW,215,2.7,10.4,49,0.00,SCT,,0.00,882.0,WeatherDisplay:10.37,2013-07-19 18:41:00,
2013-07-19 13:46:00,89.3,68.2,29.74,SW,234,1.6,5.8,50,0.00,SCT,,0.00,891.0,WeatherDisplay:10.37,2013-07-19 18:46:00,
2013-07-19 13:51:00,88.8,67.8,29.74,WSW,238,3.4,10.4,50,0.00,FEW,,0.00,900.0,WeatherDisplay:10.37,2013-07-19 18:51:00,
2013-07-19 13:56:00,89.3,69.4,29.74,SSW,210,0.6,3.5,52,0.00,FEW,,0.00,889.0,WeatherDisplay:10.37,2013-07-19 18:56:00,
2013-07-19 14:01:00,89.7,68.6,29.74,WNW,282,1.4,8.8,50,0.00,FEW,,0.00,889.0,WeatherDisplay:10.37,2013-07-19 19:01:00,
2013-07-19 14:06:00,89.3,68.2,29.74,WSW,244,2.2,8.1,50,0.00,FEW,,0.00,932.0,WeatherDisplay:10.37,2013-07-19 19:06:00,
2013-07-19 14:11:00,89.3,68.2,29.74,SW,221,3.8,9.9,50,0.00,FEW,,0.00,912.0,WeatherDisplay:10.37,2013-07-19 19:11:00,
2013-07-19 14:16:00,89.3,68.2,29.74,South,188,5.0,9.2,50,0.00,FEW,,0.00,898.0,WeatherDisplay:10.37,2013-07-19 19:16:00,
2013-07-19 14:21:00,88.8,68.3,29.74,NNE,28,1.0,5.8,51,0.00,FEW,,0.00,926.0,WeatherDisplay:10.37,2013-07-19 19:21:00,
2013-07-19 14:26:00,89.5,69.0,29.74,West,269,3.6,7.7,51,0.00,CLR,,0.00,1013.0,WeatherDisplay:10.37,2013-07-19 19:26:00,
2013-07-19 14:31:00,89.5,69.0,29.74,WSW,242,2.2,10.4,51,0.00,FEW,,0.00,341.0,WeatherDisplay:10.37,2013-07-19 19:31:00,
2013-07-19 14:36:00,89.3,69.4,29.74,WSW,250,2.4,5.8,52,0.00,SCT,,0.00,953.0,WeatherDisplay:10.37,2013-07-19 19:36:00,
2013-07-19 14:41:00,89.3,69.4,29.74,SW,221,0.1,4.6,52,0.00,SCT,,0.00,260.0,WeatherDisplay:10.37,2013-07-19 19:41:00,
2013-07-19 14:46:00,89.0,69.6,29.74,SW,225,3.9,7.7,53,0.00,SCT,,0.00,1000.0,WeatherDisplay:10.37,2013-07-19 19:46:00,
2013-07-19 14:51:00,88.8,70.0,29.74,SW,229,0.9,3.5,54,0.00,SCT,,0.00,318.0,WeatherDisplay:10.37,2013-07-19 19:51:00,
2013-07-19 14:56:00,89.3,69.4,29.74,SSE,157,4.7,16.1,52,0.00,SCT,,0.00,976.0,WeatherDisplay:10.37,2013-07-19 19:56:00,
2013-07-19 14:57:00,89.3,69.4,29.74,SSW,198,2.3,5.8,52,0.00,FEW,,0.00,976.0,WeatherDisplay:10.37,2013-07-19 19:57:00,
2013-07-19 15:02:00,89.0,69.6,29.73,NW,305,3.7,8.1,53,0.00,BKN,,0.00,171.0,WeatherDisplay:10.37,2013-07-19 20:02:00,
2013-07-19 15:07:00,88.2,68.4,29.73,WSW,254,0.5,8.1,52,0.00,BKN,,0.00,197.0,WeatherDisplay:10.37,2013-07-19 20:07:00,
2013-07-19 15:12:00,88.2,70.0,29.73,West,261,2.2,10.4,55,0.00,BKN,,0.00,190.0,WeatherDisplay:10.37,2013-07-19 20:12:00,
2013-07-19 15:17:00,88.4,68.5,29.74,West,277,2.8,8.1,52,0.00,BKN,,0.00,142.0,WeatherDisplay:10.37,2013-07-19 20:17:00,
2013-07-19 15:22:00,89.0,67.4,29.74,West,265,2.5,6.6,49,0.00,SCT,,0.00,812.0,WeatherDisplay:10.37,2013-07-19 20:22:00,
2013-07-19 15:27:00,89.7,68.0,29.74,SSE,161,0.9,5.8,49,0.00,FEW,,0.00,766.0,WeatherDisplay:10.37,2013-07-19 20:27:00,
2013-07-19 15:32:00,90.1,67.2,29.74,South,183,1.2,8.8,47,0.00,FEW,,0.00,759.0,WeatherDisplay:10.37,2013-07-19 20:32:00,
2013-07-19 15:37:00,90.1,65.9,29.74,West,261,3.6,12.1,45,0.00,FEW,,0.00,740.0,WeatherDisplay:10.37,2013-07-19 20:37:00,
2013-07-19 15:42:00,89.9,65.1,29.74,SW,229,4.0,8.1,44,0.00,FEW,,0.00,745.0,WeatherDisplay:10.37,2013-07-19 20:42:00,
2013-07-19 15:47:00,90.5,66.9,29.74,SW,234,0.3,2.3,46,0.00,FEW,,0.00,756.0,WeatherDisplay:10.37,2013-07-19 20:47:00,
2013-07-19 15:52:00,91.2,66.9,29.74,WSW,240,0.2,5.8,45,0.00,CLR,,0.00,800.0,WeatherDisplay:10.37,2013-07-19 20:52:00,
2013-07-19 15:58:00,90.5,66.3,29.74,West,266,3.9,12.1,45,0.00,CLR,,0.00,705.0,WeatherDisplay:10.37,2013-07-19 20:58:00,
2013-07-19 16:03:00,89.9,65.7,29.74,NNW,345,7.2,14.3,45,0.00,FEW,,0.00,686.0,WeatherDisplay:10.37,2013-07-19 21:03:00,
2013-07-19 16:08:00,89.5,66.0,29.74,SW,220,3.3,11.0,46,0.00,FEW,,0.00,689.0,WeatherDisplay:10.37,2013-07-19 21:08:00,
2013-07-19 16:13:00,89.5,66.0,29.74,North,5,1.9,6.6,46,0.00,FEW,,0.00,657.0,WeatherDisplay:10.37,2013-07-19 21:13:00,
2013-07-19 16:18:00,89.3,67.0,29.74,NW,311,3.5,9.9,48,0.00,FEW,,0.00,643.0,WeatherDisplay:10.37,2013-07-19 21:18:00,
2013-07-19 16:23:00,88.8,64.7,29.74,West,273,4.4,6.9,45,0.00,FEW,,0.00,635.0,WeatherDisplay:10.37,2013-07-19 21:23:00,
2013-07-19 16:28:00,89.0,64.9,29.74,NW,304,6.0,14.3,45,0.00,FEW,,0.00,621.0,WeatherDisplay:10.37,2013-07-19 21:28:00,
2013-07-19 16:33:00,89.0,64.3,29.75,WSW,248,1.5,5.8,44,0.00,FEW,,0.00,610.0,WeatherDisplay:10.37,2013-07-19 21:33:00,
2013-07-19 16:38:00,89.0,62.9,29.75,North,349,3.8,12.7,42,0.00,FEW,,0.00,603.0,WeatherDisplay:10.37,2013-07-19 21:38:00,
2013-07-19 16:43:00,89.0,63.6,29.75,WSW,256,3.7,9.2,43,0.00,FEW,,0.00,584.0,WeatherDisplay:10.37,2013-07-19 21:43:00,
2013-07-19 16:48:00,89.0,62.2,29.75,WNW,291,4.8,15.4,41,0.00,FEW,,0.00,568.0,WeatherDisplay:10.37,2013-07-19 21:48:00,
2013-07-19 16:53:00,89.0,62.2,29.75,WNW,284,2.5,11.0,41,0.00,FEW,,0.00,559.0,WeatherDisplay:10.37,2013-07-19 21:53:00,
2013-07-19 16:58:00,88.6,61.9,29.75,West,265,2.8,15.0,41,0.00,FEW,,0.00,541.0,WeatherDisplay:10.37,2013-07-19 21:58:00,
2013-07-19 17:03:00,88.6,60.5,29.75,WNW,287,2.8,6.9,39,0.00,FEW,,0.00,529.0,WeatherDisplay:10.37,2013-07-19 22:03:00,
2013-07-19 17:08:00,88.6,61.2,29.75,WNW,292,0.0,5.8,40,0.00,FEW,,0.00,519.0,WeatherDisplay:10.37,2013-07-19 22:08:00,
2013-07-19 17:13:00,88.6,61.9,29.75,WNW,289,2.1,6.6,41,0.00,FEW,,0.00,510.0,WeatherDisplay:10.37,2013-07-19 22:13:00,
2013-07-19 17:18:00,88.6,60.5,29.75,NW,311,3.1,7.7,39,0.00,FEW,,0.00,487.0,WeatherDisplay:10.37,2013-07-19 22:18:00,
2013-07-19 17:23:00,88.6,60.5,29.75,WSW,256,0.1,5.8,39,0.00,FEW,,0.00,475.0,WeatherDisplay:10.37,2013-07-19 22:23:00,
2013-07-19 17:28:00,88.4,60.3,29.75,WSW,258,0.0,1.1,39,0.00,FEW,,0.00,459.0,WeatherDisplay:10.37,2013-07-19 22:28:00,
2013-07-19 17:33:00,88.6,59.7,29.75,SSW,195,2.7,9.2,38,0.00,FEW,,0.00,441.0,WeatherDisplay:10.37,2013-07-19 22:33:00,
2013-07-19 17:38:00,88.2,60.8,29.75,SW,227,0.2,1.2,40,0.00,FEW,,0.00,425.0,WeatherDisplay:10.37,2013-07-19 22:38:00,
2013-07-19 17:43:00,88.4,63.1,29.75,SW,225,0.0,0.0,43,0.00,FEW,,0.00,415.0,WeatherDisplay:10.37,2013-07-19 22:43:00,
2013-07-19 17:48:00,88.6,63.2,29.75,WNW,286,2.3,9.2,43,0.00,FEW,,0.00,394.0,WeatherDisplay:10.37,2013-07-19 22:48:00,
2013-07-19 17:53:00,88.2,63.5,29.75,WNW,286,0.0,2.3,44,0.00,FEW,,0.00,383.0,WeatherDisplay:10.37,2013-07-19 22:53:00,
2013-07-19 17:58:00,88.0,63.4,29.75,SW,226,4.1,9.9,44,0.00,FEW,,0.00,371.0,WeatherDisplay:10.37,2013-07-19 22:58:00,
2013-07-19 18:03:00,87.2,63.9,29.75,WSW,245,1.4,11.5,46,0.00,FEW,,0.00,353.0,WeatherDisplay:10.37,2013-07-19 23:03:00,
2013-07-19 18:08:00,87.0,64.9,29.75,SW,226,0.2,9.2,48,0.00,FEW,,0.00,350.0,WeatherDisplay:10.37,2013-07-19 23:08:00,
2013-07-19 18:13:00,87.0,64.3,29.75,WNW,282,1.1,11.0,47,0.00,FEW,,0.00,346.0,WeatherDisplay:10.37,2013-07-19 23:13:00,
2013-07-19 18:18:00,86.5,64.5,29.75,West,261,2.5,11.5,48,0.00,FEW,,0.00,330.0,WeatherDisplay:10.37,2013-07-19 23:18:00,
2013-07-19 18:23:00,86.1,64.7,29.75,WNW,295,2.3,8.1,49,0.00,FEW,,0.00,304.0,WeatherDisplay:10.37,2013-07-19 23:23:00,
2013-07-19 18:28:00,86.1,64.7,29.75,West,276,3.3,8.1,49,0.00,FEW,,0.00,281.0,WeatherDisplay:10.37,2013-07-19 23:28:00,
2013-07-19 18:33:00,85.9,64.5,29.75,WNW,282,1.8,9.2,49,0.00,FEW,,0.00,260.0,WeatherDisplay:10.37,2013-07-19 23:33:00,
2013-07-19 18:38:00,85.5,65.3,29.75,WNW,292,0.0,1.2,51,0.00,FEW,,0.00,241.0,WeatherDisplay:10.37,2013-07-19 23:38:00,
2013-07-19 18:43:00,85.3,65.7,29.75,NW,314,1.1,5.8,52,0.00,FEW,,0.00,95.0,WeatherDisplay:10.37,2013-07-19 23:43:00,
2013-07-19 18:48:00,85.1,65.5,29.75,NW,311,1.7,6.6,52,0.00,FEW,,0.00,223.0,WeatherDisplay:10.37,2013-07-19 23:48:00,
2013-07-19 18:53:00,84.9,65.9,29.75,NW,317,0.8,3.5,53,0.00,FEW,,0.00,195.0,WeatherDisplay:10.37,2013-07-19 23:53:00,
2013-07-19 18:58:00,84.7,65.1,29.75,NNW,340,1.7,7.7,52,0.00,FEW,,0.00,195.0,WeatherDisplay:10.37,2013-07-19 23:58:00,
2013-07-19 19:03:00,84.1,64.6,29.76,North,355,0.7,4.6,52,0.00,FEW,,0.00,178.0,WeatherDisplay:10.37,2013-07-20 00:03:00,
2013-07-19 19:08:00,84.0,65.0,29.76,NNW,343,0.2,2.3,53,0.00,FEW,,0.00,165.0,WeatherDisplay:10.37,2013-07-20 00:08:00,
2013-07-19 19:13:00,84.0,65.6,29.76,WNW,288,1.1,8.1,54,0.00,FEW,,0.00,153.0,WeatherDisplay:10.37,2013-07-20 00:13:00,
2013-07-19 19:18:00,83.6,65.2,29.76,WNW,292,0.1,3.5,54,0.00,FEW,,0.00,134.0,WeatherDisplay:10.37,2013-07-20 00:18:00,
2013-07-19 19:23:00,83.2,64.3,29.76,WNW,300,2.1,7.7,53,0.00,FEW,,0.00,76.0,WeatherDisplay:10.37,2013-07-20 00:23:00,
2013-07-19 19:28:00,82.8,63.4,29.76,WNW,300,1.2,6.9,52,0.00,FEW,,0.00,33.0,WeatherDisplay:10.37,2013-07-20 00:28:00,
2013-07-19 19:33:00,82.4,64.1,29.76,NNE,19,0.3,3.5,54,0.00,FEW,,0.00,32.0,WeatherDisplay:10.37,2013-07-20 00:33:00,
2013-07-19 19:38:00,82.0,63.2,29.76,WSW,244,0.1,9.2,53,0.00,FEW,,0.00,30.0,WeatherDisplay:10.37,2013-07-20 00:38:00,
2013-07-19 19:43:00,81.8,63.0,29.76,North,360,1.1,6.6,53,0.00,FEW,,0.00,26.0,WeatherDisplay:10.37,2013-07-20 00:43:00,
2013-07-19 19:48:00,81.6,63.3,29.76,WNW,292,0.0,0.0,54,0.00,FEW,,0.00,26.0,WeatherDisplay:10.37,2013-07-20 00:48:00,
2013-07-19 19:53:00,81.4,64.2,29.76,WNW,293,0.0,0.0,56,0.00,FEW,,0.00,25.0,WeatherDisplay:10.37,2013-07-20 00:53:00,
2013-07-19 19:58:00,81.1,63.9,29.76,NW,317,0.7,4.4,56,0.00,FEW,,0.00,21.0,WeatherDisplay:10.37,2013-07-20 00:58:00,
2013-07-19 20:03:00,80.9,64.7,29.76,NW,317,0.0,0.0,58,0.00,FEW,,0.00,18.0,WeatherDisplay:10.37,2013-07-20 01:03:00,
2013-07-19 20:08:00,80.7,64.5,29.76,NW,317,0.0,1.2,58,0.00,FEW,,0.00,14.0,WeatherDisplay:10.37,2013-07-20 01:08:00,
2013-07-19 20:13:00,80.5,63.9,29.76,West,263,0.2,3.5,57,0.00,FEW,,0.00,12.0,WeatherDisplay:10.37,2013-07-20 01:13:00,
2013-07-19 20:18:00,80.1,63.5,29.77,West,269,0.1,1.1,57,0.00,FEW,,0.00,9.0,WeatherDisplay:10.37,2013-07-20 01:18:00,
2013-07-19 20:23:00,79.9,63.8,29.77,WNW,290,0.1,1.2,58,0.00,FEW,,0.00,7.0,WeatherDisplay:10.37,2013-07-20 01:23:00,
2013-07-19 20:28:00,79.8,64.2,29.77,WNW,285,0.0,0.0,59,0.00,FEW,,0.00,5.0,WeatherDisplay:10.37,2013-07-20 01:28:00,
2013-07-19 20:33:00,79.6,63.5,29.78,WNW,286,0.0,0.0,58,0.00,FEW,,0.00,0.0,WeatherDisplay:10.37,2013-07-20 01:33:00,
2013-07-19 20:38:00,79.4,64.3,29.78,WNW,289,0.2,1.2,60,0.00,FEW,,0.00,0.0,WeatherDisplay:10.37,2013-07-20 01:38:00,
2013-07-19 20:43:00,79.2,63.6,29.78,NW,321,0.5,4.6,59,0.00,FEW,,0.00,0.0,WeatherDisplay:10.37,2013-07-20 01:43:00,
2013-07-19 20:48:00,79.0,64.4,29.78,West,263,0.4,2.3,61,0.00,FEW,,0.00,0.0,WeatherDisplay:10.37,2013-07-20 01:48:00,
2013-07-19 20:53:00,78.8,63.7,29.78,WNW,300,0.0,1.2,60,0.00,FEW,,0.00,0.0,WeatherDisplay:10.37,2013-07-20 01:53:00,
2013-07-19 20:58:00,78.6,64.5,29.78,West,263,0.0,0.0,62,0.00,FEW,,0.00,0.0,WeatherDisplay:10.37,2013-07-20 01:58:00,
2013-07-19 21:03:00,78.5,64.4,29.78,West,263,0.0,0.0,62,0.00,FEW,,0.00,0.0,WeatherDisplay:10.37,2013-07-20 02:03:00,
2013-07-19 21:08:00,78.3,64.2,29.78,WNW,302,0.7,4.6,62,0.00,FEW,,0.00,0.0,WeatherDisplay:10.37,2013-07-20 02:08:00,
2013-07-19 21:13:00,78.1,64.0,29.78,WNW,302,0.0,1.2,62,0.00,FEW,,0.00,0.0,WeatherDisplay:10.37,2013-07-20 02:13:00,
2013-07-19 21:18:00,77.7,63.6,29.79,WNW,296,0.0,1.2,62,0.00,FEW,,0.00,0.0,WeatherDisplay:10.37,2013-07-20 02:18:00,
2013-07-19 21:23:00,77.6,63.5,29.79,WNW,296,0.0,0.0,62,0.00,FEW,,0.00,0.0,WeatherDisplay:10.37,2013-07-20 02:23:00,
2013-07-19 21:28:00,77.4,63.8,29.79,WNW,296,0.0,0.0,63,0.00,FEW,,0.00,0.0,WeatherDisplay:10.37,2013-07-20 02:28:00,
2013-07-19 21:33:00,77.0,63.4,29.80,WNW,296,0.0,0.0,63,0.00,FEW,,0.00,0.0,WeatherDisplay:10.37,2013-07-20 02:33:00,
2013-07-19 21:38:00,76.8,63.2,29.80,WNW,296,0.0,0.0,63,0.00,FEW,,0.00,0.0,WeatherDisplay:10.37,2013-07-20 02:38:00,
2013-07-19 21:43:00,76.5,63.4,29.80,WNW,296,0.0,0.0,64,0.00,FEW,,0.00,0.0,WeatherDisplay:10.37,2013-07-20 02:43:00,
2013-07-19 21:48:00,76.5,63.4,29.80,WNW,296,0.0,1.1,64,0.00,FEW,,0.00,0.0,WeatherDisplay:10.37,2013-07-20 02:48:00,
2013-07-19 21:53:00,76.3,63.2,29.80,WNW,296,0.1,1.2,64,0.00,FEW,,0.00,0.0,WeatherDisplay:10.37,2013-07-20 02:53:00,
2013-07-19 21:58:00,76.0,63.4,29.80,WNW,296,0.0,0.0,65,0.00,FEW,,0.00,0.0,WeatherDisplay:10.37,2013-07-20 02:58:00,
2013-07-19 22:03:00,75.8,63.2,29.81,WNW,296,0.0,0.0,65,0.00,FEW,,0.00,0.0,WeatherDisplay:10.37,2013-07-20 03:03:00,
2013-07-19 22:08:00,75.4,62.8,29.81,WNW,296,0.0,0.0,65,0.00,FEW,,0.00,0.0,WeatherDisplay:10.37,2013-07-20 03:08:00,
2013-07-19 22:13:00,75.3,63.2,29.81,WNW,296,0.0,0.0,66,0.00,FEW,,0.00,0.0,WeatherDisplay:10.37,2013-07-20 03:13:00,
2013-07-19 22:18:00,74.9,62.8,29.81,WNW,296,0.0,0.0,66,0.00,FEW,,0.00,0.0,WeatherDisplay:10.37,2013-07-20 03:18:00,
2013-07-19 22:23:00,74.7,62.6,29.81,WNW,296,0.0,1.2,66,0.00,FEW,,0.00,0.0,WeatherDisplay:10.37,2013-07-20 03:23:00,
2013-07-19 22:28:00,74.4,62.7,29.81,WNW,296,0.0,0.0,67,0.00,FEW,,0.00,0.0,WeatherDisplay:10.37,2013-07-20 03:28:00,
2013-07-19 22:33:00,74.4,62.7,29.81,WNW,296,0.0,0.0,67,0.00,FEW,,0.00,0.0,WeatherDisplay:10.37,2013-07-20 03:33:00,
2013-07-19 22:38:00,74.2,63.0,29.81,WNW,296,0.0,0.0,68,0.00,FEW,,0.00,0.0,WeatherDisplay:10.37,2013-07-20 03:38:00,
2013-07-19 22:43:00,74.0,62.8,29.81,WNW,296,0.0,0.0,68,0.00,FEW,,0.00,0.0,WeatherDisplay:10.37,2013-07-20 03:43:00,
2013-07-19 22:48:00,73.9,62.2,29.82,WNW,296,0.0,1.1,67,0.00,FEW,,0.00,0.0,WeatherDisplay:10.37,2013-07-20 03:48:00,
2013-07-19 22:53:00,73.7,61.6,29.82,WNW,296,0.0,0.0,66,0.00,FEW,,0.00,0.0,WeatherDisplay:10.37,2013-07-20 03:53:00,
2013-07-19 22:58:00,73.7,62.1,29.82,WNW,296,0.0,0.0,67,0.00,FEW,,0.00,0.0,WeatherDisplay:10.37,2013-07-20 03:58:00,
2013-07-19 23:01:00,73.5,61.9,29.83,WNW,296,0.0,1.2,67,0.00,FEW,,0.00,0.0,WeatherDisplay:10.37,2013-07-20 04:01:00,
2013-07-19 23:02:00,73.5,61.9,29.83,WNW,296,0.0,1.2,67,0.00,FEW,,0.00,0.0,WeatherDisplay:10.37,2013-07-20 04:02:00,
2013-07-19 23:07:00,73.5,61.4,29.83,WNW,298,0.0,1.2,66,0.00,FEW,,0.00,0.0,WeatherDisplay:10.37,2013-07-20 04:07:00,
2013-07-19 23:12:00,73.3,61.7,29.83,WNW,298,0.0,0.0,67,0.00,FEW,,0.00,0.0,WeatherDisplay:10.37,2013-07-20 04:12:00,
2013-07-19 23:17:00,73.3,61.3,29.83,WNW,298,0.0,1.0,66,0.00,FEW,,0.00,0.0,WeatherDisplay:10.37,2013-07-20 04:17:00,
2013-07-19 23:22:00,73.3,61.7,29.83,WNW,298,0.0,1.0,67,0.00,FEW,,0.00,0.0,WeatherDisplay:10.37,2013-07-20 04:22:00,
2013-07-19 23:27:00,73.2,61.6,29.83,WNW,298,0.0,0.0,67,0.00,FEW,,0.00,0.0,WeatherDisplay:10.37,2013-07-20 04:27:00,
2013-07-19 23:32:00,73.0,61.0,29.83,WNW,298,0.0,0.0,66,0.00,FEW,,0.00,0.0,WeatherDisplay:10.37,2013-07-20 04:32:00,
2013-07-19 23:37:00,73.0,61.0,29.83,WNW,298,0.0,0.0,66,0.00,FEW,,0.00,0.0,WeatherDisplay:10.37,2013-07-20 04:37:00,
2013-07-19 23:42:00,72.7,61.1,29.83,WNW,298,0.0,0.0,67,0.00,FEW,,0.00,0.0,WeatherDisplay:10.37,2013-07-20 04:42:00,
2013-07-19 23:47:00,72.5,60.9,29.83,WNW,298,0.0,0.0,67,0.00,FEW,,0.00,0.0,WeatherDisplay:10.37,2013-07-20 04:47:00,
2013-07-19 23:52:00,72.3,60.7,29.83,WNW,298,0.0,1.0,67,0.00,FEW,,0.00,0.0,WeatherDisplay:10.37,2013-07-20 04:52:00,
2013-07-19 23:57:00,72.0,61.3,29.83,WNW,298,0.0,0.0,69,0.00,FEW,,0.00,0.0,WeatherDisplay:10.37,2013-07-20 04:57:00,